createdAt,value
2022-11-15T00:00:22.652Z,4.40
2022-11-15T00:00:53.225Z,4.50
2022-11-15T00:01:23.833Z,4.90
2022-11-15T00:01:54.467Z,4.90
2022-11-15T00:02:25.179Z,4.70
2022-11-15T00:02:55.753Z,4.80
2022-11-15T00:03:26.343Z,4.40
2022-11-15T00:03:56.911Z,4.70
2022-11-15T00:04:27.499Z,4.50
2022-11-15T00:04:58.083Z,5.00
2022-11-15T00:05:28.664Z,4.70
2022-11-15T00:05:59.239Z,4.50
2022-11-15T00:06:29.851Z,4.90
2022-11-15T00:07:00.525Z,4.40
2022-11-15T00:07:53.958Z,4.40
2022-11-15T00:08:01.911Z,4.10
2022-11-15T00:08:32.451Z,5.20
2022-11-15T00:09:03.017Z,4.80
2022-11-15T00:09:33.591Z,4.60
2022-11-15T00:10:04.176Z,4.50
2022-11-15T00:10:34.754Z,4.90
2022-11-15T00:11:05.338Z,4.30
2022-11-15T00:11:35.907Z,4.30
2022-11-15T00:12:06.472Z,5.10
2022-11-15T00:12:37.054Z,4.40
2022-11-15T00:13:07.627Z,5.00
2022-11-15T00:13:38.195Z,4.80
2022-11-15T00:14:08.775Z,4.20
2022-11-15T00:14:39.327Z,4.60
2022-11-15T00:15:09.897Z,4.80
2022-11-15T00:15:40.442Z,4.70
2022-11-15T00:16:10.991Z,5.00
2022-11-15T00:16:41.599Z,4.90
2022-11-15T00:17:12.240Z,4.20
2022-11-15T00:17:42.804Z,4.30
2022-11-15T00:18:13.360Z,5.20
2022-11-15T00:18:49.293Z,4.40
2022-11-15T00:19:14.713Z,4.70
2022-11-15T00:19:45.279Z,4.60
2022-11-15T00:20:15.856Z,4.40
2022-11-15T00:20:46.426Z,4.30
2022-11-15T00:21:16.961Z,4.30
2022-11-15T00:21:47.549Z,4.60
2022-11-15T00:22:18.139Z,4.50
2022-11-15T00:22:48.718Z,5.60
2022-11-15T00:23:19.332Z,4.40
2022-11-15T00:23:49.911Z,4.60
2022-11-15T00:24:20.482Z,4.50
2022-11-15T00:24:51.079Z,4.60
2022-11-15T00:25:21.640Z,4.40
2022-11-15T00:25:52.223Z,4.80
2022-11-15T00:26:22.789Z,4.70
2022-11-15T00:26:53.350Z,4.40
2022-11-15T00:27:23.913Z,4.60
2022-11-15T00:27:54.473Z,4.70
2022-11-15T00:28:25.091Z,4.20
2022-11-15T00:28:55.676Z,4.10
2022-11-15T00:29:26.251Z,4.20
2022-11-15T00:29:56.829Z,4.70
2022-11-15T00:30:27.372Z,4.30
2022-11-15T00:30:57.952Z,4.10
2022-11-15T00:31:28.526Z,4.70
2022-11-15T00:31:59.115Z,4.20
2022-11-15T00:32:29.710Z,4.50
2022-11-15T00:33:00.275Z,4.40
2022-11-15T00:33:31.171Z,4.20
2022-11-15T00:34:01.474Z,4.90
2022-11-15T00:34:32.015Z,4.30
2022-11-15T00:35:02.571Z,4.70
2022-11-15T00:35:33.166Z,4.90
2022-11-15T00:36:03.743Z,4.30
2022-11-15T00:36:34.326Z,4.60
2022-11-15T00:37:04.862Z,4.00
2022-11-15T00:37:35.458Z,4.40
2022-11-15T00:38:06.023Z,4.50
2022-11-15T00:38:36.589Z,4.40
2022-11-15T00:39:07.156Z,4.00
2022-11-15T00:39:37.743Z,4.20
2022-11-15T00:40:08.330Z,4.90
2022-11-15T00:40:38.907Z,3.90
2022-11-15T00:41:10.191Z,4.40
2022-11-15T00:41:40.366Z,4.40
2022-11-15T00:42:10.938Z,4.30
2022-11-15T00:42:41.518Z,4.30
2022-11-15T00:43:12.121Z,4.10
2022-11-15T00:43:42.703Z,4.60
2022-11-15T00:44:13.583Z,4.50
2022-11-15T00:44:44.108Z,4.20
2022-11-15T00:45:14.652Z,3.90
2022-11-15T00:45:45.228Z,4.40
2022-11-15T00:46:15.773Z,4.20
2022-11-15T00:46:46.352Z,4.00
2022-11-15T00:47:16.929Z,4.50
2022-11-15T00:47:47.513Z,4.10
2022-11-15T00:48:18.085Z,4.10
2022-11-15T00:48:48.673Z,3.70
2022-11-15T00:49:19.244Z,3.80
2022-11-15T00:49:49.813Z,4.40
2022-11-15T00:50:20.403Z,3.90
2022-11-15T00:50:50.949Z,4.00
2022-11-15T00:51:21.547Z,3.90
2022-11-15T00:51:52.134Z,4.10
2022-11-15T00:52:22.721Z,3.90
2022-11-15T00:52:53.287Z,4.10
2022-11-15T00:53:23.863Z,4.20
2022-11-15T00:53:54.454Z,4.10
2022-11-15T00:54:24.993Z,4.30
2022-11-15T00:54:55.585Z,4.40
2022-11-15T00:55:26.124Z,4.10
2022-11-15T00:55:56.679Z,4.10
2022-11-15T00:56:27.246Z,4.10
2022-11-15T00:56:57.772Z,4.30
2022-11-15T00:57:28.353Z,4.00
2022-11-15T00:57:58.947Z,3.70
2022-11-15T00:58:29.548Z,3.80
2022-11-15T00:59:00.107Z,3.80
2022-11-15T00:59:30.685Z,4.40
2022-11-15T01:00:01.281Z,4.10
2022-11-15T01:00:31.911Z,3.90
2022-11-15T01:01:02.581Z,4.30
2022-11-15T01:01:33.206Z,3.90
2022-11-15T01:02:03.812Z,4.00
2022-11-15T01:02:34.368Z,3.80
2022-11-15T01:03:04.958Z,4.00
2022-11-15T01:03:35.499Z,3.80
2022-11-15T01:04:06.046Z,3.90
2022-11-15T01:04:36.586Z,3.80
2022-11-15T01:05:07.168Z,3.80
2022-11-15T01:05:37.769Z,4.00
2022-11-15T01:06:08.336Z,3.80
2022-11-15T01:06:38.940Z,3.60
2022-11-15T01:07:09.563Z,4.40
2022-11-15T01:07:40.109Z,4.10
2022-11-15T01:08:10.686Z,3.90
2022-11-15T01:08:41.276Z,3.90
2022-11-15T01:09:11.870Z,3.60
2022-11-15T01:09:42.426Z,3.80
2022-11-15T01:10:12.985Z,3.70
2022-11-15T01:10:43.580Z,3.50
2022-11-15T01:11:14.145Z,3.90
2022-11-15T01:11:44.733Z,3.60
2022-11-15T01:12:15.318Z,4.60
2022-11-15T01:12:45.934Z,3.50
2022-11-15T01:13:16.496Z,4.10
2022-11-15T01:13:47.086Z,3.60
2022-11-15T01:14:21.544Z,3.50
2022-11-15T01:14:48.436Z,3.70
2022-11-15T01:15:19.028Z,3.40
2022-11-15T01:15:49.654Z,3.70
2022-11-15T01:16:20.200Z,3.70
2022-11-15T01:16:50.777Z,3.50
2022-11-15T01:17:21.380Z,3.60
2022-11-15T01:17:51.929Z,3.50
2022-11-15T01:18:22.522Z,3.50
2022-11-15T01:18:53.066Z,3.70
2022-11-15T01:19:23.661Z,4.00
2022-11-15T01:19:54.219Z,3.60
2022-11-15T01:20:24.790Z,3.80
2022-11-15T01:20:55.365Z,3.70
2022-11-15T01:21:25.937Z,4.00
2022-11-15T01:21:56.522Z,3.80
2022-11-15T01:22:27.112Z,3.90
2022-11-15T01:22:57.688Z,3.90
2022-11-15T01:23:28.333Z,3.70
2022-11-15T01:23:58.927Z,3.80
2022-11-15T01:24:29.506Z,4.00
2022-11-15T01:25:00.098Z,4.00
2022-11-15T01:25:30.625Z,3.70
2022-11-15T01:26:01.174Z,4.50
2022-11-15T01:26:31.762Z,4.20
2022-11-15T01:27:02.363Z,4.10
2022-11-15T01:27:32.914Z,4.00
2022-11-15T01:28:03.483Z,4.00
2022-11-15T01:28:34.031Z,3.90
2022-11-15T01:29:04.602Z,3.60
2022-11-15T01:29:35.164Z,3.80
2022-11-15T01:30:05.759Z,4.20
2022-11-15T01:30:36.314Z,4.40
2022-11-15T01:31:06.869Z,4.20
2022-11-15T01:31:37.429Z,4.30
2022-11-15T01:32:08.007Z,3.90
2022-11-15T01:32:38.626Z,4.20
2022-11-15T01:33:09.206Z,4.70
2022-11-15T01:33:39.815Z,3.80
2022-11-15T01:34:10.398Z,4.10
2022-11-15T01:34:40.937Z,3.70
2022-11-15T01:35:11.614Z,3.70
2022-11-15T01:35:42.152Z,3.80
2022-11-15T01:36:12.706Z,3.80
2022-11-15T01:36:43.270Z,3.70
2022-11-15T01:37:13.848Z,3.90
2022-11-15T01:37:44.434Z,3.80
2022-11-15T01:38:15.046Z,3.50
2022-11-15T01:38:45.656Z,3.50
2022-11-15T01:39:16.223Z,4.20
2022-11-15T01:39:46.788Z,3.90
2022-11-15T01:40:17.365Z,3.60
2022-11-15T01:40:47.982Z,4.20
2022-11-15T01:41:18.568Z,3.70
2022-11-15T01:41:49.150Z,3.80
2022-11-15T01:42:19.725Z,3.50
2022-11-15T01:42:50.364Z,4.10
2022-11-15T01:43:20.895Z,3.60
2022-11-15T01:43:51.447Z,3.70
2022-11-15T01:44:22.016Z,3.90
2022-11-15T01:44:52.614Z,3.70
2022-11-15T01:45:23.168Z,4.00
2022-11-15T01:45:53.743Z,3.30
2022-11-15T01:46:24.323Z,3.50
2022-11-15T01:46:54.911Z,3.60
2022-11-15T01:47:25.460Z,3.50
2022-11-15T01:47:56.015Z,3.70
2022-11-15T01:48:26.582Z,3.90
2022-11-15T01:48:57.171Z,3.90
2022-11-15T01:49:27.730Z,3.70
2022-11-15T01:49:58.325Z,4.00
2022-11-15T01:50:28.890Z,4.10
2022-11-15T01:50:59.471Z,3.90
2022-11-15T01:51:30.079Z,3.50
2022-11-15T01:52:00.640Z,3.60
2022-11-15T01:52:31.209Z,3.80
2022-11-15T01:53:01.782Z,4.10
2022-11-15T01:53:32.651Z,3.50
2022-11-15T01:54:03.341Z,3.50
2022-11-15T01:54:33.924Z,3.70
2022-11-15T01:55:04.525Z,3.90
2022-11-15T01:55:35.070Z,3.80
2022-11-15T01:56:05.639Z,4.00
2022-11-15T01:56:36.229Z,3.80
2022-11-15T01:57:06.801Z,3.80
2022-11-15T01:57:37.364Z,3.90
2022-11-15T01:58:07.939Z,3.60
2022-11-15T01:58:38.511Z,3.70
2022-11-15T01:59:09.095Z,3.80
2022-11-15T01:59:39.656Z,3.50
2022-11-15T02:00:10.256Z,4.00
2022-11-15T02:00:40.854Z,3.60
2022-11-15T02:01:11.562Z,3.80
2022-11-15T02:01:42.209Z,3.50
2022-11-15T02:02:12.765Z,3.80
2022-11-15T02:02:43.325Z,3.50
2022-11-15T02:03:13.926Z,4.10
2022-11-15T02:03:44.502Z,3.80
2022-11-15T02:04:15.106Z,4.00
2022-11-15T02:04:45.668Z,4.00
2022-11-15T02:05:16.236Z,3.80
2022-11-15T02:05:46.801Z,3.60
2022-11-15T02:06:17.362Z,4.00
2022-11-15T02:06:47.992Z,3.40
2022-11-15T02:07:18.674Z,3.70
2022-11-15T02:07:49.231Z,3.90
2022-11-15T02:08:19.793Z,3.70
2022-11-15T02:08:50.394Z,3.40
2022-11-15T02:09:20.968Z,3.50
2022-11-15T02:09:51.543Z,4.30
2022-11-15T02:10:22.089Z,4.40
2022-11-15T02:10:52.629Z,4.20
2022-11-15T02:11:23.168Z,4.00
2022-11-15T02:11:53.725Z,4.20
2022-11-15T02:12:24.305Z,4.20
2022-11-15T02:12:54.892Z,4.30
2022-11-15T02:13:25.446Z,3.70
2022-11-15T02:13:56.021Z,4.00
2022-11-15T02:14:26.578Z,3.50
2022-11-15T02:14:57.167Z,3.80
2022-11-15T02:15:27.739Z,3.80
2022-11-15T02:16:02.833Z,3.20
2022-11-15T02:16:29.120Z,3.70
2022-11-15T02:16:59.687Z,3.70
2022-11-15T02:17:30.330Z,3.60
2022-11-15T02:18:00.939Z,3.80
2022-11-15T02:18:31.504Z,4.10
2022-11-15T02:19:02.073Z,3.30
2022-11-15T02:19:32.726Z,3.50
2022-11-15T02:20:03.280Z,3.60
2022-11-15T02:20:33.843Z,4.20
2022-11-15T02:21:04.429Z,4.10
2022-11-15T02:21:35.018Z,3.90
2022-11-15T02:22:05.629Z,3.60
2022-11-15T02:22:36.196Z,3.60
2022-11-15T02:23:06.758Z,3.80
2022-11-15T02:23:37.358Z,4.10
2022-11-15T02:24:07.918Z,3.50
2022-11-15T02:24:38.470Z,3.70
2022-11-15T02:25:08.997Z,4.00
2022-11-15T02:25:39.585Z,3.40
2022-11-15T02:26:10.135Z,3.60
2022-11-15T02:26:40.698Z,3.80
2022-11-15T02:27:11.267Z,3.60
2022-11-15T02:27:41.851Z,3.80
2022-11-15T02:28:12.417Z,3.90
2022-11-15T02:28:42.991Z,3.70
2022-11-15T02:29:13.571Z,4.00
2022-11-15T02:29:44.129Z,3.40
2022-11-15T02:30:14.676Z,3.50
2022-11-15T02:30:45.316Z,3.60
2022-11-15T02:31:15.883Z,3.90
2022-11-15T02:31:46.471Z,3.90
2022-11-15T02:32:17.033Z,3.40
2022-11-15T02:32:47.576Z,3.80
2022-11-15T02:33:18.134Z,3.80
2022-11-15T02:33:48.717Z,3.90
2022-11-15T02:34:19.291Z,3.50
2022-11-15T02:34:49.890Z,4.10
2022-11-15T02:35:20.442Z,3.70
2022-11-15T02:35:50.996Z,3.50
2022-11-15T02:36:21.584Z,3.70
2022-11-15T02:36:52.170Z,3.90
2022-11-15T02:37:22.773Z,3.70
2022-11-15T02:37:53.356Z,3.60
2022-11-15T02:38:23.926Z,3.90
2022-11-15T02:38:54.481Z,3.70
2022-11-15T02:39:25.025Z,3.70
2022-11-15T02:39:55.568Z,4.10
2022-11-15T02:40:26.141Z,3.30
2022-11-15T02:40:56.734Z,3.90
2022-11-15T02:41:27.341Z,3.40
2022-11-15T02:41:57.892Z,3.60
2022-11-15T02:42:28.453Z,3.80
2022-11-15T02:43:00.382Z,3.80
2022-11-15T02:43:30.338Z,3.50
2022-11-15T02:44:01.019Z,3.90
2022-11-15T02:44:31.607Z,3.60
2022-11-15T02:45:02.190Z,3.80
2022-11-15T02:45:32.773Z,3.70
2022-11-15T02:46:03.328Z,3.20
2022-11-15T02:46:33.935Z,3.50
2022-11-15T02:47:04.472Z,3.20
2022-11-15T02:47:35.066Z,3.50
2022-11-15T02:48:05.633Z,3.30
2022-11-15T02:48:36.205Z,3.70
2022-11-15T02:49:06.772Z,3.60
2022-11-15T02:49:37.342Z,3.50
2022-11-15T02:50:07.902Z,3.80
2022-11-15T02:50:38.459Z,3.20
2022-11-15T02:51:09.009Z,3.30
2022-11-15T02:51:39.572Z,3.50
2022-11-15T02:52:10.145Z,3.70
2022-11-15T02:52:40.744Z,3.40
2022-11-15T02:53:11.326Z,3.50
2022-11-15T02:53:41.902Z,4.00
2022-11-15T02:54:12.438Z,3.50
2022-11-15T02:54:43.026Z,3.60
2022-11-15T02:55:13.660Z,3.50
2022-11-15T02:55:44.224Z,3.40
2022-11-15T02:56:14.764Z,3.50
2022-11-15T02:56:45.332Z,3.30
2022-11-15T02:57:15.896Z,3.40
2022-11-15T02:57:46.550Z,3.60
2022-11-15T02:58:17.099Z,3.70
2022-11-15T02:58:47.666Z,3.70
2022-11-15T02:59:18.219Z,3.50
2022-11-15T02:59:48.744Z,3.80
2022-11-15T03:00:19.316Z,3.80
2022-11-15T03:00:49.931Z,3.70
2022-11-15T03:01:20.554Z,3.60
2022-11-15T03:01:51.159Z,3.40
2022-11-15T03:02:21.731Z,3.80
2022-11-15T03:02:52.283Z,3.30
2022-11-15T03:03:22.847Z,3.30
2022-11-15T03:03:53.449Z,3.30
2022-11-15T03:04:24.033Z,3.30
2022-11-15T03:04:54.594Z,3.60
2022-11-15T03:05:25.180Z,3.70
2022-11-15T03:05:55.773Z,3.60
2022-11-15T03:06:26.340Z,3.70
2022-11-15T03:06:56.962Z,3.30
2022-11-15T03:07:27.639Z,4.00
2022-11-15T03:08:02.293Z,3.70
2022-11-15T03:08:29.088Z,3.60
2022-11-15T03:08:59.666Z,3.40
2022-11-15T03:09:30.235Z,3.60
2022-11-15T03:10:00.836Z,3.70
2022-11-15T03:10:31.414Z,3.30
2022-11-15T03:11:01.986Z,3.40
2022-11-15T03:11:32.526Z,3.70
2022-11-15T03:12:03.102Z,3.60
2022-11-15T03:12:33.682Z,3.20
2022-11-15T03:13:04.244Z,3.90
2022-11-15T03:13:34.878Z,3.40
2022-11-15T03:14:05.412Z,3.70
2022-11-15T03:14:35.953Z,3.30
2022-11-15T03:15:06.558Z,3.50
2022-11-15T03:15:37.129Z,3.50
2022-11-15T03:16:07.710Z,3.70
2022-11-15T03:16:38.262Z,3.30
2022-11-15T03:17:08.853Z,3.70
2022-11-15T03:17:39.430Z,3.50
2022-11-15T03:18:09.983Z,4.10
2022-11-15T03:18:40.541Z,3.40
2022-11-15T03:19:11.107Z,3.30
2022-11-15T03:19:41.677Z,3.40
2022-11-15T03:20:12.282Z,3.30
2022-11-15T03:20:42.901Z,3.70
2022-11-15T03:21:13.470Z,3.70
2022-11-15T03:21:44.283Z,3.30
2022-11-15T03:22:14.874Z,3.30
2022-11-15T03:22:45.430Z,3.40
2022-11-15T03:23:15.990Z,3.40
2022-11-15T03:23:46.554Z,3.60
2022-11-15T03:24:19.775Z,3.80
2022-11-15T03:24:47.854Z,3.50
2022-11-15T03:25:18.441Z,3.70
2022-11-15T03:25:49.008Z,3.60
2022-11-15T03:26:19.566Z,3.70
2022-11-15T03:26:50.115Z,3.50
2022-11-15T03:27:20.695Z,3.50
2022-11-15T03:27:51.269Z,3.60
2022-11-15T03:28:21.883Z,3.60
2022-11-15T03:28:52.447Z,3.40
2022-11-15T03:29:23.001Z,3.30
2022-11-15T03:29:53.582Z,3.50
2022-11-15T03:30:24.183Z,3.40
2022-11-15T03:30:54.756Z,3.40
2022-11-15T03:31:25.323Z,3.30
2022-11-15T03:31:55.909Z,3.40
2022-11-15T03:32:26.490Z,3.30
2022-11-15T03:32:57.078Z,3.40
2022-11-15T03:33:27.649Z,3.70
2022-11-15T03:33:58.192Z,3.80
2022-11-15T03:34:28.797Z,3.40
2022-11-15T03:34:59.331Z,3.40
2022-11-15T03:35:29.913Z,3.00
2022-11-15T03:36:00.496Z,3.80
2022-11-15T03:36:31.038Z,3.40
2022-11-15T03:37:01.596Z,3.50
2022-11-15T03:37:32.150Z,3.30
2022-11-15T03:38:02.821Z,3.60
2022-11-15T03:38:33.474Z,3.30
2022-11-15T03:39:04.054Z,3.60
2022-11-15T03:39:34.638Z,3.30
2022-11-15T03:40:05.181Z,3.40
2022-11-15T03:40:35.737Z,3.70
2022-11-15T03:41:06.305Z,3.10
2022-11-15T03:41:36.868Z,3.50
2022-11-15T03:42:07.426Z,3.40
2022-11-15T03:42:38.014Z,3.40
2022-11-15T03:43:08.600Z,3.50
2022-11-15T03:43:39.192Z,3.60
2022-11-15T03:44:09.772Z,3.60
2022-11-15T03:44:40.351Z,3.40
2022-11-15T03:45:10.882Z,3.40
2022-11-15T03:45:41.461Z,3.40
2022-11-15T03:46:12.033Z,3.30
2022-11-15T03:46:42.591Z,3.60
2022-11-15T03:47:13.143Z,3.40
2022-11-15T03:47:43.727Z,3.70
2022-11-15T03:48:14.309Z,3.30
2022-11-15T03:48:44.884Z,3.10
2022-11-15T03:49:15.472Z,3.30
2022-11-15T03:49:46.022Z,3.10
2022-11-15T03:50:16.599Z,3.50
2022-11-15T03:50:47.169Z,3.50
2022-11-15T03:51:17.770Z,3.30
2022-11-15T03:51:48.313Z,3.50
2022-11-15T03:52:18.865Z,3.10
2022-11-15T03:52:49.440Z,3.40
2022-11-15T03:53:20.013Z,3.20
2022-11-15T03:53:50.631Z,3.60
2022-11-15T03:54:21.173Z,3.30
2022-11-15T03:54:51.727Z,3.60
2022-11-15T03:55:22.318Z,3.30
2022-11-15T03:55:52.878Z,3.70
2022-11-15T03:56:23.448Z,3.10
2022-11-15T03:56:54.044Z,3.30
2022-11-15T03:57:24.653Z,3.30
2022-11-15T03:57:55.223Z,3.50
2022-11-15T03:58:25.783Z,3.50
2022-11-15T03:58:56.335Z,3.20
2022-11-15T03:59:26.915Z,3.80
2022-11-15T03:59:57.493Z,3.50
2022-11-15T04:00:28.076Z,3.40
2022-11-15T04:00:58.740Z,3.20
2022-11-15T04:01:29.439Z,3.30
2022-11-15T04:02:00.010Z,3.20
2022-11-15T04:02:30.583Z,3.30
2022-11-15T04:03:01.169Z,3.20
2022-11-15T04:03:32.103Z,3.30
2022-11-15T04:04:02.301Z,3.10
2022-11-15T04:04:32.870Z,3.40
2022-11-15T04:05:03.430Z,3.40
2022-11-15T04:05:34.011Z,3.30
2022-11-15T04:06:04.596Z,3.40
2022-11-15T04:06:35.212Z,3.30
2022-11-15T04:07:05.843Z,3.40
2022-11-15T04:07:36.441Z,3.50
2022-11-15T04:08:07.224Z,3.50
2022-11-15T04:08:37.763Z,3.30
2022-11-15T04:09:08.340Z,3.10
2022-11-15T04:09:38.913Z,3.30
2022-11-15T04:10:09.498Z,3.60
2022-11-15T04:10:40.072Z,3.30
2022-11-15T04:11:10.638Z,3.20
2022-11-15T04:11:41.210Z,3.30
2022-11-15T04:12:11.807Z,3.00
2022-11-15T04:12:42.379Z,3.40
2022-11-15T04:13:12.929Z,3.00
2022-11-15T04:13:43.501Z,3.30
2022-11-15T04:14:14.073Z,3.60
2022-11-15T04:14:44.645Z,3.20
2022-11-15T04:15:15.271Z,2.90
2022-11-15T04:15:45.830Z,3.20
2022-11-15T04:16:16.368Z,3.10
2022-11-15T04:16:46.914Z,3.20
2022-11-15T04:17:17.449Z,2.90
2022-11-15T04:17:48.009Z,3.10
2022-11-15T04:18:18.602Z,3.70
2022-11-15T04:18:49.169Z,3.30
2022-11-15T04:19:19.725Z,3.20
2022-11-15T04:19:50.278Z,3.50
2022-11-15T04:20:20.861Z,3.20
2022-11-15T04:20:51.420Z,3.00
2022-11-15T04:21:21.973Z,3.00
2022-11-15T04:21:52.568Z,3.50
2022-11-15T04:22:23.134Z,3.10
2022-11-15T04:22:53.699Z,3.50
2022-11-15T04:23:24.290Z,3.50
2022-11-15T04:23:54.866Z,3.10
2022-11-15T04:24:25.425Z,3.80
2022-11-15T04:24:56.006Z,4.20
2022-11-15T04:25:32.032Z,6.10
2022-11-15T04:25:57.348Z,5.90
2022-11-15T04:26:27.923Z,5.90
2022-11-15T04:26:58.466Z,5.70
2022-11-15T04:27:29.012Z,6.30
2022-11-15T04:27:59.571Z,6.40
2022-11-15T04:28:30.180Z,6.60
2022-11-15T04:29:00.760Z,7.00
2022-11-15T04:29:31.318Z,7.10
2022-11-15T04:30:01.913Z,6.50
2022-11-15T04:30:32.483Z,6.80
2022-11-15T04:31:03.037Z,6.30
2022-11-15T04:31:33.594Z,6.00
2022-11-15T04:32:04.166Z,5.30
2022-11-15T04:32:34.748Z,4.90
2022-11-15T04:33:05.324Z,5.70
2022-11-15T04:33:35.932Z,5.00
2022-11-15T04:34:06.525Z,4.90
2022-11-15T04:34:37.116Z,5.60
2022-11-15T04:35:07.688Z,5.30
2022-11-15T04:35:38.247Z,4.80
2022-11-15T04:36:08.827Z,4.70
2022-11-15T04:36:39.417Z,4.20
2022-11-15T04:37:09.994Z,5.00
2022-11-15T04:37:45.070Z,4.10
2022-11-15T04:38:11.314Z,4.30
2022-11-15T04:38:41.897Z,4.50
2022-11-15T04:39:12.505Z,4.50
2022-11-15T04:39:43.120Z,4.40
2022-11-15T04:40:13.658Z,4.60
2022-11-15T04:40:44.220Z,4.50
2022-11-15T04:41:14.757Z,4.60
2022-11-15T04:41:45.368Z,4.40
2022-11-15T04:42:15.923Z,4.70
2022-11-15T04:42:46.499Z,4.40
2022-11-15T04:43:17.075Z,4.30
2022-11-15T04:43:47.636Z,4.80
2022-11-15T04:44:18.241Z,4.70
2022-11-15T04:44:48.815Z,4.40
2022-11-15T04:45:19.405Z,4.40
2022-11-15T04:45:49.964Z,4.30
2022-11-15T04:46:20.559Z,4.80
2022-11-15T04:46:51.116Z,4.10
2022-11-15T04:47:21.642Z,4.00
2022-11-15T04:47:52.219Z,3.80
2022-11-15T04:48:22.778Z,4.00
2022-11-15T04:48:58.277Z,4.10
2022-11-15T04:49:24.160Z,4.00
2022-11-15T04:49:54.724Z,4.50
2022-11-15T04:50:25.296Z,3.60
2022-11-15T04:50:55.903Z,4.10
2022-11-15T04:51:26.436Z,3.90
2022-11-15T04:51:56.986Z,4.00
2022-11-15T04:52:27.569Z,4.10
2022-11-15T04:52:58.122Z,3.80
2022-11-15T04:53:28.932Z,4.00
2022-11-15T04:53:59.602Z,4.20
2022-11-15T04:54:30.230Z,3.80
2022-11-15T04:55:06.714Z,4.00
2022-11-15T04:55:31.594Z,3.80
2022-11-15T04:56:02.184Z,3.90
2022-11-15T04:56:32.767Z,3.80
2022-11-15T04:57:03.335Z,4.00
2022-11-15T04:57:33.917Z,3.80
2022-11-15T04:58:04.477Z,3.80
2022-11-15T04:58:35.054Z,4.20
2022-11-15T04:59:05.626Z,4.20
2022-11-15T04:59:36.189Z,3.80
2022-11-15T05:00:06.763Z,3.80
2022-11-15T05:00:37.505Z,3.30
2022-11-15T05:01:08.203Z,3.90
2022-11-15T05:01:44.589Z,3.80
2022-11-15T05:02:09.594Z,3.50
2022-11-15T05:02:40.155Z,3.30
2022-11-15T05:03:10.738Z,3.90
2022-11-15T05:03:41.290Z,3.50
2022-11-15T05:04:11.853Z,3.90
2022-11-15T05:04:42.423Z,3.50
2022-11-15T05:05:13.011Z,3.80
2022-11-15T05:05:43.579Z,3.70
2022-11-15T05:06:14.163Z,3.50
2022-11-15T05:06:44.904Z,3.80
2022-11-15T05:07:15.659Z,4.00
2022-11-15T05:07:46.286Z,3.70
2022-11-15T05:08:16.823Z,3.60
2022-11-15T05:08:47.386Z,4.40
2022-11-15T05:09:17.952Z,3.30
2022-11-15T05:09:48.504Z,3.40
2022-11-15T05:10:19.087Z,3.50
2022-11-15T05:10:49.661Z,3.50
2022-11-15T05:11:20.258Z,3.50
2022-11-15T05:11:50.822Z,3.60
2022-11-15T05:12:21.397Z,3.40
2022-11-15T05:12:51.948Z,3.50
2022-11-15T05:13:22.505Z,3.60
2022-11-15T05:13:53.067Z,3.50
2022-11-15T05:14:23.659Z,3.70
2022-11-15T05:14:54.251Z,3.50
2022-11-15T05:15:24.816Z,3.70
2022-11-15T05:15:55.362Z,3.60
2022-11-15T05:16:25.930Z,3.40
2022-11-15T05:16:56.492Z,3.90
2022-11-15T05:17:27.075Z,4.10
2022-11-15T05:17:57.633Z,3.30
2022-11-15T05:18:28.207Z,3.30
2022-11-15T05:18:58.803Z,3.90
2022-11-15T05:19:29.334Z,3.40
2022-11-15T05:19:59.907Z,3.80
2022-11-15T05:20:30.447Z,3.40
2022-11-15T05:21:01.059Z,3.30
2022-11-15T05:21:31.655Z,3.90
2022-11-15T05:22:02.215Z,3.90
2022-11-15T05:22:32.774Z,3.90
2022-11-15T05:23:03.329Z,3.70
2022-11-15T05:23:34.171Z,3.80
2022-11-15T05:24:04.870Z,4.00
2022-11-15T05:24:35.410Z,4.00
2022-11-15T05:25:05.978Z,4.30
2022-11-15T05:25:36.541Z,3.50
2022-11-15T05:26:09.360Z,3.90
2022-11-15T05:26:38.061Z,3.80
2022-11-15T05:27:08.633Z,4.40
2022-11-15T05:27:39.215Z,4.00
2022-11-15T05:28:09.790Z,3.90
2022-11-15T05:28:40.361Z,4.10
2022-11-15T05:29:10.890Z,3.70
2022-11-15T05:29:41.472Z,3.70
2022-11-15T05:30:12.035Z,3.70
2022-11-15T05:30:42.618Z,3.70
2022-11-15T05:31:13.194Z,3.70
2022-11-15T05:31:44.112Z,3.60
2022-11-15T05:32:14.861Z,3.20
2022-11-15T05:32:45.453Z,3.80
2022-11-15T05:33:16.033Z,3.70
2022-11-15T05:33:46.820Z,3.70
2022-11-15T05:34:17.408Z,4.00
2022-11-15T05:34:47.979Z,4.10
2022-11-15T05:35:18.567Z,4.20
2022-11-15T05:35:49.142Z,3.20
2022-11-15T05:36:19.751Z,3.40
2022-11-15T05:36:50.339Z,3.20
2022-11-15T05:37:22.439Z,3.40
2022-11-15T05:37:51.974Z,3.20
2022-11-15T05:38:22.952Z,3.70
2022-11-15T05:38:53.848Z,3.30
2022-11-15T05:39:24.504Z,3.40
2022-11-15T05:39:55.123Z,3.40
2022-11-15T05:40:25.712Z,3.30
2022-11-15T05:40:56.251Z,3.20
2022-11-15T05:41:26.845Z,3.20
2022-11-15T05:41:57.380Z,3.30
2022-11-15T05:42:27.991Z,3.40
2022-11-15T05:42:58.556Z,3.60
2022-11-15T05:43:29.355Z,3.50
2022-11-15T05:44:00.048Z,3.60
2022-11-15T05:44:30.630Z,3.60
2022-11-15T05:45:01.190Z,3.50
2022-11-15T05:45:31.749Z,3.10
2022-11-15T05:46:02.320Z,3.10
2022-11-15T05:46:32.964Z,3.30
2022-11-15T05:47:03.489Z,3.60
2022-11-15T05:47:34.063Z,3.40
2022-11-15T05:48:04.655Z,3.60
2022-11-15T05:48:35.231Z,3.50
2022-11-15T05:49:05.812Z,3.10
2022-11-15T05:49:36.389Z,3.10
2022-11-15T05:50:06.965Z,3.30
2022-11-15T05:50:37.523Z,3.40
2022-11-15T05:51:08.099Z,3.20
2022-11-15T05:51:38.698Z,3.90
2022-11-15T05:52:09.288Z,4.30
2022-11-15T05:52:39.887Z,3.90
2022-11-15T05:53:10.462Z,4.30
2022-11-15T05:53:41.071Z,3.90
2022-11-15T05:54:11.641Z,3.60
2022-11-15T05:54:42.205Z,3.90
2022-11-15T05:55:12.780Z,3.50
2022-11-15T05:55:43.329Z,3.60
2022-11-15T05:56:13.929Z,3.70
2022-11-15T05:56:44.511Z,3.30
2022-11-15T05:57:15.090Z,3.50
2022-11-15T05:57:45.654Z,3.70
2022-11-15T05:58:16.227Z,3.30
2022-11-15T05:58:46.728Z,3.20
2022-11-15T05:59:17.848Z,2.80
2022-11-15T05:59:48.410Z,2.80
2022-11-15T06:00:18.974Z,2.80
2022-11-15T06:00:49.540Z,3.10
2022-11-15T06:01:20.072Z,2.90
2022-11-15T06:01:50.667Z,3.20
2022-11-15T06:02:21.272Z,3.20
2022-11-15T06:02:51.825Z,3.30
2022-11-15T06:03:22.355Z,3.00
2022-11-15T06:03:52.885Z,3.30
2022-11-15T06:04:23.504Z,3.50
2022-11-15T06:04:54.027Z,3.90
2022-11-15T06:05:24.570Z,3.40
2022-11-15T06:05:55.114Z,3.40
2022-11-15T06:06:25.629Z,3.60
2022-11-15T06:06:56.722Z,3.30
2022-11-15T06:07:27.227Z,3.40
2022-11-15T06:07:58.257Z,3.30
2022-11-15T06:08:29.264Z,3.70
2022-11-15T06:08:59.825Z,3.50
2022-11-15T06:09:30.330Z,4.10
2022-11-15T06:10:01.359Z,3.30
2022-11-15T06:10:31.920Z,3.60
2022-11-15T06:11:02.476Z,3.40
2022-11-15T06:11:33.479Z,3.20
2022-11-15T06:12:04.005Z,3.70
2022-11-15T06:12:35.036Z,3.20
2022-11-15T06:13:06.056Z,3.60
2022-11-15T06:13:37.085Z,3.30
2022-11-15T06:14:08.110Z,3.30
2022-11-15T06:14:38.650Z,3.70
2022-11-15T06:15:09.176Z,3.60
2022-11-15T06:15:40.219Z,3.20
2022-11-15T06:16:10.763Z,3.80
2022-11-15T06:16:41.288Z,3.30
2022-11-15T06:17:11.827Z,3.50
2022-11-15T06:17:42.859Z,4.20
2022-11-15T06:18:13.865Z,3.70
2022-11-15T06:18:44.894Z,3.40
2022-11-15T06:19:15.410Z,3.90
2022-11-15T06:19:46.446Z,3.60
2022-11-15T06:20:16.973Z,3.80
2022-11-15T06:20:48.011Z,3.80
2022-11-15T06:21:18.553Z,4.40
2022-11-15T06:21:49.571Z,3.50
2022-11-15T06:22:20.103Z,3.70
2022-11-15T06:22:51.141Z,3.60
2022-11-15T06:23:22.179Z,3.30
2022-11-15T06:23:52.734Z,4.00
2022-11-15T06:24:23.325Z,3.60
2022-11-15T06:24:53.800Z,3.60
2022-11-15T06:25:24.837Z,3.70
2022-11-15T06:25:55.378Z,3.40
2022-11-15T06:26:25.916Z,3.40
2022-11-15T06:26:56.436Z,4.10
2022-11-15T06:27:26.962Z,3.70
2022-11-15T06:27:57.988Z,4.10
2022-11-15T06:28:28.537Z,4.10
2022-11-15T06:28:59.055Z,4.00
2022-11-15T06:29:30.103Z,3.50
2022-11-15T06:30:00.636Z,4.00
2022-11-15T06:30:31.157Z,3.80
2022-11-15T06:31:01.706Z,3.50
2022-11-15T06:31:32.201Z,4.10
2022-11-15T06:32:03.215Z,3.90
2022-11-15T06:32:33.761Z,3.90
2022-11-15T06:33:04.795Z,3.80
2022-11-15T06:33:35.517Z,4.10
2022-11-15T06:34:06.067Z,4.00
2022-11-15T06:34:37.078Z,4.00
2022-11-15T06:35:07.609Z,3.80
2022-11-15T06:35:38.134Z,4.10
2022-11-15T06:36:13.100Z,4.10
2022-11-15T06:36:39.901Z,4.10
2022-11-15T06:37:10.437Z,3.70
2022-11-15T06:37:41.470Z,3.80
2022-11-15T06:38:11.971Z,3.90
2022-11-15T06:38:43.019Z,3.90
2022-11-15T06:39:14.055Z,4.00
2022-11-15T06:39:44.617Z,3.90
2022-11-15T06:40:15.121Z,4.30
2022-11-15T06:40:46.141Z,3.70
2022-11-15T06:41:16.657Z,4.00
2022-11-15T06:41:47.675Z,4.10
2022-11-15T06:42:18.199Z,4.00
2022-11-15T06:42:48.741Z,3.80
2022-11-15T06:43:19.266Z,4.00
2022-11-15T06:43:49.838Z,3.70
2022-11-15T06:44:20.418Z,3.90
2022-11-15T06:44:50.948Z,3.60
2022-11-15T06:45:21.948Z,3.60
2022-11-15T06:45:52.484Z,3.80
2022-11-15T06:46:23.013Z,4.10
2022-11-15T06:46:53.534Z,4.10
2022-11-15T06:47:24.055Z,3.70